Time;durP1;ratioP1;P1;durP2;ratioP2;P2;SDS_P1;SDS_P2;PMS_P1;PMS_P2;Temp;Humidity;BMP_temperature;BMP_pressure;BME280_temperature;BME280_humidity;BME280_pressure;Samples;Min_cycle;Max_cycle;Signal;HPM_P1;HPM_P2
2024/01/19 00:03:05;;;;;;;35.03;21.00;;;;;;;5.32;55.53;98380.06;6731676;29;20248;-79
2024/01/19 00:06:28;;;;;;;41.77;24.37;;;;;;;5.19;56.92;98384.41;6729546;29;20255;-80
2024/01/19 00:09:50;;;;;;;39.27;23.67;;;;;;;5.56;57.00;98381.66;6727792;29;20230;-80
2024/01/19 00:13:11;;;;;;;41.27;23.97;;;;;;;5.87;55.80;98398.38;6722634;29;20588;-80
2024/01/19 00:16:33;;;;;;;46.37;24.50;;;;;;;5.43;56.63;98390.31;6729696;29;20302;-80
2024/01/19 00:19:54;;;;;;;38.87;23.13;;;;;;;5.54;56.37;98400.56;6730922;29;20739;-80
2024/01/19 00:23:17;;;;;;;39.83;24.47;;;;;;;5.51;56.63;98403.63;6730233;29;20279;-80
2024/01/19 00:26:39;;;;;;;43.87;26.47;;;;;;;5.66;56.52;98415.13;6727984;29;20213;-80
2024/01/19 00:30:00;;;;;;;38.70;23.77;;;;;;;5.98;55.21;98416.66;6729695;29;20712;-79
2024/01/19 00:33:22;;;;;;;36.10;23.47;;;;;;;5.78;55.94;98424.38;6743362;29;20271;-79
2024/01/19 00:36:43;;;;;;;39.07;23.67;;;;;;;6.01;55.24;98421.66;6743826;29;20295;-79
2024/01/19 00:40:11;;;;;;;38.47;24.03;;;;;;;6.07;55.10;98416.34;6729278;29;20266;-79
2024/01/19 00:43:33;;;;;;;40.07;24.23;;;;;;;6.03;54.72;98427.63;6728374;29;20216;-80
2024/01/19 00:46:54;;;;;;;40.53;24.80;;;;;;;5.65;54.59;98434.06;6729280;29;20684;-79
2024/01/19 00:50:16;;;;;;;41.20;24.63;;;;;;;5.60;55.42;98437.25;6729610;29;20361;-78
2024/01/19 00:53:37;;;;;;;41.83;25.73;;;;;;;5.46;56.81;98435.41;6728628;29;20299;-80
2024/01/19 00:57:00;;;;;;;41.30;24.40;;;;;;;5.57;56.72;98444.81;6730175;29;20250;-79
2024/01/19 01:00:22;;;;;;;41.73;25.70;;;;;;;5.25;57.26;98445.94;6730555;29;20255;-79
2024/01/19 01:03:43;;;;;;;49.30;25.10;;;;;;;5.37;56.70;98460.53;6731019;29;20317;-79
2024/01/19 01:07:05;;;;;;;43.97;25.37;;;;;;;5.14;57.68;98451.72;6730265;29;20310;-79
2024/01/19 01:10:26;;;;;;;44.23;24.97;;;;;;;5.37;57.67;98465.06;6730120;29;20734;-79
2024/01/19 01:13:49;;;;;;;38.83;24.97;;;;;;;5.30;56.87;98469.50;6733208;29;20347;-79
2024/01/19 01:17:11;;;;;;;42.13;23.67;;;;;;;5.44;57.17;98482.03;6732484;29;20241;-80
2024/01/19 01:20:32;;;;;;;43.80;26.23;;;;;;;5.34;56.98;98481.47;6733619;29;20217;-79
2024/01/19 01:23:54;;;;;;;43.57;25.50;;;;;;;5.20;57.55;98491.09;6735044;29;20674;-80
2024/01/19 01:27:15;;;;;;;44.13;27.53;;;;;;;5.07;58.23;98498.06;6731573;29;20367;-79
2024/01/19 01:30:40;;;;;;;46.37;27.90;;;;;;;5.08;58.36;98507.72;6733478;29;20250;-79
2024/01/19 01:34:03;;;;;;;47.17;26.20;;;;;;;5.06;58.43;98509.72;6719625;29;20747;-79
2024/01/19 01:37:25;;;;;;;44.27;24.87;;;;;;;5.36;57.45;98517.69;6707625;29;20233;-80
2024/01/19 01:40:46;;;;;;;43.47;25.53;;;;;;;5.38;57.45;98533.56;6708332;29;20208;-79
2024/01/19 01:44:08;;;;;;;41.63;24.90;;;;;;;5.12;57.44;98525.09;6722911;29;20830;-80
2024/01/19 01:47:31;;;;;;;42.23;25.60;;;;;;;5.31;57.81;98530.75;6733308;29;20797;-80
2024/01/19 01:50:53;;;;;;;43.37;27.33;;;;;;;5.25;57.60;98522.63;6734341;29;20281;-80
2024/01/19 01:54:15;;;;;;;43.40;25.80;;;;;;;5.23;57.34;98519.28;6734332;29;20302;-80
2024/01/19 01:57:36;;;;;;;42.63;25.13;;;;;;;4.94;58.23;98541.38;6732694;29;20267;-81
2024/01/19 02:00:58;;;;;;;46.60;26.33;;;;;;;5.10;57.75;98535.09;6731000;29;20268;-79
2024/01/19 02:04:21;;;;;;;36.37;24.87;;;;;;;5.32;57.54;98544.97;6733142;29;20234;-79
2024/01/19 02:07:43;;;;;;;38.60;23.67;;;;;;;4.94;57.83;98530.69;6733753;29;20616;-78
2024/01/19 02:11:04;;;;;;;39.83;23.47;;;;;;;5.23;57.33;98559.38;6733922;29;20741;-79
2024/01/19 02:14:26;;;;;;;35.60;23.17;;;;;;;5.36;57.00;98563.13;6733738;29;20213;-80
2024/01/19 02:17:47;;;;;;;41.60;25.17;;;;;;;5.32;56.50;98550.31;6730789;29;20317;-80
2024/01/19 02:21:10;;;;;;;40.17;23.47;;;;;;;5.20;57.15;98557.91;6732850;29;20241;-80
2024/01/19 02:24:34;;;;;;;34.27;22.87;;;;;;;5.27;57.24;98572.25;6733128;29;20305;-80
2024/01/19 02:27:56;;;;;;;41.93;23.77;;;;;;;5.03;56.88;98569.72;6733057;29;20720;-80
2024/01/19 02:31:18;;;;;;;37.67;23.07;;;;;;;5.25;56.71;98562.72;6730993;29;20374;-80
2024/01/19 02:34:39;;;;;;;39.80;23.43;;;;;;;5.07;57.29;98572.88;6732648;29;20241;-79
2024/01/19 02:38:01;;;;;;;37.30;24.23;;;;;;;5.12;57.39;98563.31;6732220;29;20376;-79
2024/01/19 02:41:23;;;;;;;42.53;23.90;;;;;;;5.16;57.30;98575.31;6734187;29;20216;-80
2024/01/19 02:44:45;;;;;;;39.53;23.87;;;;;;;5.28;56.81;98570.38;6733174;29;20307;-80
2024/01/19 02:48:06;;;;;;;41.97;24.57;;;;;;;4.91;56.83;98539.06;6734213;29;20319;-79
2024/01/19 02:51:28;;;;;;;36.90;23.37;;;;;;;5.07;56.84;98588.91;6734924;29;20301;-79
2024/01/19 02:54:50;;;;;;;40.63;24.07;;;;;;;4.81;56.89;98572.31;6734256;29;20697;-80
2024/01/19 02:58:13;;;;;;;38.33;25.27;;;;;;;4.79;57.74;98595.72;6733133;29;20224;-79
2024/01/19 03:01:35;;;;;;;39.57;23.87;;;;;;;5.07;57.37;98589.72;6731131;29;20553;-80
2024/01/19 03:04:56;;;;;;;42.07;25.43;;;;;;;4.87;57.46;98598.34;6732981;29;20220;-79
2024/01/19 03:08:18;;;;;;;45.70;24.93;;;;;;;4.66;57.80;98606.94;6733353;29;20319;-79
2024/01/19 03:11:40;;;;;;;40.13;24.93;;;;;;;4.74;57.99;98604.25;6732852;29;20208;-79
2024/01/19 03:15:02;;;;;;;44.73;26.13;;;;;;;4.74;57.56;98611.41;6731797;29;20271;-78
2024/01/19 03:18:24;;;;;;;41.03;23.93;;;;;;;4.71;57.86;98609.13;6728801;29;20252;-80
2024/01/19 03:21:45;;;;;;;39.97;24.90;;;;;;;4.76;57.88;98623.59;6731044;29;20306;-79
2024/01/19 03:25:07;;;;;;;39.93;24.80;;;;;;;4.59;58.02;98626.47;6731686;29;20253;-79
2024/01/19 03:28:29;;;;;;;41.07;25.30;;;;;;;4.77;57.93;98600.41;6731000;29;20323;-79
2024/01/19 03:31:52;;;;;;;40.60;25.50;;;;;;;4.94;57.27;98631.34;6731527;29;20589;-79
2024/01/19 03:35:13;;;;;;;40.60;26.60;;;;;;;5.12;57.66;98627.44;6723497;29;20216;-78
2024/01/19 03:38:35;;;;;;;49.53;26.60;;;;;;;5.03;57.65;98643.69;6729130;29;20234;-78
2024/01/19 03:41:56;;;;;;;43.93;27.83;;;;;;;4.96;57.87;98635.50;6730783;29;20261;-79
2024/01/19 03:45:18;;;;;;;43.73;25.00;;;;;;;4.98;57.34;98640.69;6729972;29;20217;-79
2024/01/19 03:48:41;;;;;;;45.13;26.63;;;;;;;4.98;57.58;98630.00;6729841;29;20237;-79
2024/01/19 03:52:04;;;;;;;43.73;27.17;;;;;;;5.22;57.39;98638.75;6731267;29;20300;-79
2024/01/19 03:55:25;;;;;;;49.13;26.77;;;;;;;4.98;57.63;98640.69;6731297;29;20269;-79
2024/01/19 03:58:47;;;;;;;42.03;26.90;;;;;;;5.07;57.61;98645.00;6731471;29;20727;-79
2024/01/19 04:02:08;;;;;;;44.50;27.80;;;;;;;4.87;57.76;98627.72;6730623;29;20326;-80
2024/01/19 04:05:31;;;;;;;42.53;25.93;;;;;;;5.34;57.18;98636.50;6730701;29;20297;-79
2024/01/19 04:08:53;;;;;;;46.97;26.10;;;;;;;5.11;57.33;98617.75;6732121;29;20367;-79
2024/01/19 04:12:15;;;;;;;44.40;27.30;;;;;;;5.28;57.45;98645.22;6731471;29;20344;-79
2024/01/19 04:15:37;;;;;;;41.63;26.00;;;;;;;5.65;56.77;98630.09;6729892;29;20857;-79
2024/01/19 04:18:58;;;;;;;40.67;25.90;;;;;;;5.87;55.40;98648.03;6727650;29;20280;-79
2024/01/19 04:22:21;;;;;;;40.97;26.17;;;;;;;5.81;55.31;98647.91;6728203;29;20728;-79
2024/01/19 04:25:43;;;;;;;37.87;25.30;;;;;;;5.79;55.54;98649.88;6729421;29;20216;-79
2024/01/19 04:29:05;;;;;;;40.80;24.87;;;;;;;5.38;55.01;98619.94;6728804;29;20246;-79
2024/01/19 04:32:27;;;;;;;42.90;27.37;;;;;;;5.63;55.17;98652.69;6729657;29;20213;-79
2024/01/19 04:35:48;;;;;;;44.53;28.67;;;;;;;5.20;56.76;98651.44;6727031;29;20218;-79
2024/01/19 04:39:11;;;;;;;47.10;29.17;;;;;;;5.45;56.66;98652.13;6728950;29;20286;-79
2024/01/19 04:42:33;;;;;;;45.07;27.07;;;;;;;5.09;56.80;98659.88;6742569;29;20229;-79
2024/01/19 04:45:54;;;;;;;43.97;27.23;;;;;;;5.42;56.38;98663.19;6726180;29;20218;-79
2024/01/19 04:49:16;;;;;;;43.87;27.60;;;;;;;5.43;56.21;98660.31;6727733;29;20309;-80
2024/01/19 04:52:37;;;;;;;39.03;24.80;;;;;;;5.22;55.97;98652.09;6729062;29;20211;-79
2024/01/19 04:56:04;;;;;;;47.43;25.23;;;;;;;5.22;56.26;98673.47;6729754;29;20360;-79
2024/01/19 04:59:25;;;;;;;47.50;27.57;;;;;;;5.42;56.46;98677.38;6732080;29;20675;-79
2024/01/19 05:02:46;;;;;;;47.43;28.03;;;;;;;5.43;56.23;98667.53;6730000;29;20324;-79
2024/01/19 05:06:08;;;;;;;43.73;26.23;;;;;;;5.03;56.70;98675.75;6729931;29;20250;-80
2024/01/19 05:09:29;;;;;;;42.27;28.00;;;;;;;4.91;57.64;98693.16;6732285;29;20260;-79
2024/01/19 05:12:52;;;;;;;43.87;27.47;;;;;;;5.19;57.04;98697.88;6732546;29;20296;-79
2024/01/19 05:16:14;;;;;;;48.40;28.50;;;;;;;5.09;57.24;98699.09;6732743;29;20664;-79
2024/01/19 05:19:36;;;;;;;47.07;28.27;;;;;;;4.91;58.01;98694.00;6730885;29;20360;-80
2024/01/19 05:22:57;;;;;;;44.20;28.30;;;;;;;4.94;58.23;98706.16;6730393;29;20233;-78
2024/01/19 05:26:19;;;;;;;45.17;26.80;;;;;;;5.30;57.11;98718.88;6731710;29;20364;-81
2024/01/19 05:29:42;;;;;;;39.07;26.07;;;;;;;5.25;57.24;98718.56;6732577;29;20261;-80
2024/01/19 05:33:04;;;;;;;45.23;26.93;;;;;;;5.12;57.21;98723.63;6732310;29;20247;-80
2024/01/19 05:36:25;;;;;;;46.40;26.07;;;;;;;4.51;57.57;98736.81;6723107;29;20220;-81
2024/01/19 05:39:47;;;;;;;45.40;26.43;;;;;;;4.30;59.47;98752.50;6731892;29;20256;-79
2024/01/19 05:43:08;;;;;;;47.73;29.73;;;;;;;4.77;58.87;98748.09;6732850;29;20733;-79
2024/01/19 05:46:31;;;;;;;43.03;27.27;;;;;;;4.99;58.50;98746.53;6730994;29;20209;-81
2024/01/19 05:49:52;;;;;;;46.70;28.73;;;;;;;5.39;57.60;98755.25;6731386;29;20228;-80
2024/01/19 05:53:14;;;;;;;42.53;27.57;;;;;;;5.46;57.42;98764.25;6734529;29;20299;-80
2024/01/19 05:56:35;;;;;;;41.10;25.50;;;;;;;5.41;57.02;98769.28;6735713;29;20316;-80
2024/01/19 05:59:57;;;;;;;44.33;23.97;;;;;;;5.51;56.40;98777.09;6745566;29;20229;-80
2024/01/19 06:03:20;;;;;;;41.67;24.87;;;;;;;5.10;56.79;98763.06;6740803;29;20320;-80
2024/01/19 06:06:41;;;;;;;47.30;26.83;;;;;;;5.01;56.92;98788.13;6731011;29;20208;-80
2024/01/19 06:10:04;;;;;;;46.57;28.50;;;;;;;4.63;57.95;98788.00;6736369;29;20283;-80
2024/01/19 06:13:25;;;;;;;54.50;29.03;;;;;;;4.87;57.92;98804.00;6736791;29;20220;-78
2024/01/19 06:16:47;;;;;;;51.30;28.93;;;;;;;4.63;58.66;98801.34;6735399;29;20250;-80
2024/01/19 06:20:12;;;;;;;51.17;28.33;;;;;;;4.74;58.69;98799.19;6723677;29;20232;-81
2024/01/19 06:23:33;;;;;;;49.87;26.33;;;;;;;4.39;59.18;98828.91;6732901;29;20237;-81
2024/01/19 06:26:55;;;;;;;41.00;26.93;;;;;;;4.68;58.84;98828.41;6733438;29;20249;-80
2024/01/19 06:30:16;;;;;;;41.80;25.50;;;;;;;4.76;58.20;98834.56;6735725;29;20845;-80
2024/01/19 06:33:38;;;;;;;35.13;22.43;;;;;;;5.05;57.51;98839.38;6735525;29;20292;-81
2024/01/19 06:37:01;;;;;;;39.30;22.63;;;;;;;5.02;57.48;98839.72;6735000;29;20212;-81
2024/01/19 06:40:22;;;;;;;34.03;22.33;;;;;;;5.07;57.13;98838.19;6732846;29;20331;-80
2024/01/19 06:43:44;;;;;;;36.77;22.50;;;;;;;5.01;57.30;98849.56;6742949;29;20259;-81
2024/01/19 06:47:06;;;;;;;38.37;22.13;;;;;;;5.04;57.25;98843.91;6743192;29;20233;-81
2024/01/19 06:50:27;;;;;;;32.30;21.37;;;;;;;4.69;57.05;98862.94;6732662;29;20267;-81
2024/01/19 06:53:51;;;;;;;33.90;18.90;;;;;;;4.80;57.33;98880.47;6731029;29;20377;-81
2024/01/19 06:57:12;;;;;;;35.43;21.10;;;;;;;5.27;56.39;98879.59;6721529;29;20205;-81
2024/01/19 07:00:34;;;;;;;30.73;21.97;;;;;;;5.46;55.50;98873.88;6730776;29;20336;-80
2024/01/19 07:03:55;;;;;;;38.07;20.80;;;;;;;4.86;56.68;98891.34;6727162;29;20265;-80
2024/01/19 07:07:17;;;;;;;30.27;20.40;;;;;;;4.69;57.20;98912.84;6731707;29;20370;-80
2024/01/19 07:10:40;;;;;;;31.83;18.00;;;;;;;5.02;56.81;98883.28;6730433;29;20209;-80
2024/01/19 07:14:01;;;;;;;27.67;17.63;;;;;;;4.89;57.12;98912.34;6718133;29;20270;-81
2024/01/19 07:17:23;;;;;;;32.47;17.60;;;;;;;4.89;56.14;98876.81;6730877;29;20770;-80
2024/01/19 07:20:44;;;;;;;28.83;16.33;;;;;;;4.79;56.77;98914.34;6730844;29;20304;-78
2024/01/19 07:24:07;;;;;;;25.37;16.27;;;;;;;4.44;56.32;98884.44;6731646;29;20785;-83
2024/01/19 07:27:30;;;;;;;24.73;16.00;;;;;;;4.92;56.53;98936.06;6729535;29;20262;-79
2024/01/19 07:30:51;;;;;;;29.53;17.43;;;;;;;5.16;55.96;98951.25;6730471;29;20225;-79
2024/01/19 07:34:13;;;;;;;26.30;16.27;;;;;;;4.80;56.28;98961.44;6741792;29;20209;-79
2024/01/19 07:37:34;;;;;;;25.27;17.23;;;;;;;5.18;56.10;98957.28;6730669;29;20299;-79
2024/01/19 07:40:56;;;;;;;31.20;18.03;;;;;;;5.24;56.21;98948.59;6732104;29;20751;-78
2024/01/19 07:44:19;;;;;;;28.53;16.87;;;;;;;4.92;56.72;98959.28;6728656;29;20301;-79
2024/01/19 07:47:40;;;;;;;25.83;16.37;;;;;;;4.91;56.33;98970.97;6730475;29;20289;-84
2024/01/19 07:51:03;;;;;;;25.73;16.77;;;;;;;4.86;56.28;98974.13;6724808;29;20357;-79
2024/01/19 07:54:24;;;;;;;25.70;18.73;;;;;;;4.76;56.66;98948.56;6728717;29;20269;-80
2024/01/19 07:57:45;;;;;;;28.20;18.87;;;;;;;5.18;56.55;98979.50;6711300;29;20362;-80
2024/01/19 08:01:08;;;;;;;27.20;17.63;;;;;;;4.98;56.17;98996.00;6739161;29;20751;-81
2024/01/19 08:04:30;;;;;;;29.43;18.50;;;;;;;5.03;57.22;99007.88;6739510;29;20731;-80
2024/01/19 08:07:52;;;;;;;27.70;17.03;;;;;;;5.10;56.54;99016.91;6734902;29;20233;-78
2024/01/19 08:11:14;;;;;;;27.93;16.67;;;;;;;4.96;57.46;99016.72;6733425;29;20204;-80
2024/01/19 08:14:37;;;;;;;24.33;16.13;;;;;;;4.57;56.99;99003.13;6738907;29;20289;-80
2024/01/19 08:18:02;;;;;;;26.03;14.90;;;;;;;4.79;56.55;99013.16;6760211;29;20237;-80
2024/01/19 08:21:24;;;;;;;21.83;15.17;;;;;;;5.00;55.85;99026.91;6739657;29;20368;-78
2024/01/19 08:24:45;;;;;;;24.70;16.77;;;;;;;5.20;56.16;99036.28;6732617;29;20238;-79
2024/01/19 08:28:07;;;;;;;29.67;17.03;;;;;;;5.08;56.19;99045.63;6726603;29;20377;-80
2024/01/19 08:31:30;;;;;;;22.60;16.33;;;;;;;4.96;56.55;99043.44;6726864;29;20245;-81
2024/01/19 08:34:53;;;;;;;24.93;15.53;;;;;;;5.12;56.67;99032.78;6736760;29;20300;-80
2024/01/19 08:38:14;;;;;;;20.83;16.30;;;;;;;5.11;56.63;99057.81;6718585;29;20323;-79
2024/01/19 08:41:42;;;;;;;26.43;16.20;;;;;;;5.24;56.59;99055.50;6733406;29;20307;-79
2024/01/19 08:45:04;;;;;;;23.30;15.67;;;;;;;5.25;56.11;99058.00;6729832;29;20580;-80
2024/01/19 08:48:26;;;;;;;22.57;15.87;;;;;;;5.20;56.47;99062.19;6729561;29;20233;-80
2024/01/19 08:51:50;;;;;;;29.03;16.67;;;;;;;4.97;56.52;99069.16;6726846;29;20303;-79
2024/01/19 08:55:12;;;;;;;25.93;16.17;;;;;;;5.11;56.34;99071.16;6726775;29;20218;-80
2024/01/19 08:58:33;;;;;;;25.20;16.37;;;;;;;5.07;56.63;99077.88;6728092;29;20320;-81
2024/01/19 09:01:56;;;;;;;25.73;16.27;;;;;;;5.21;56.54;99069.19;6729702;29;20232;-81
2024/01/19 09:05:17;;;;;;;23.20;15.50;;;;;;;5.43;56.03;99076.56;6731085;29;20376;-81
2024/01/19 09:08:42;;;;;;;27.27;17.30;;;;;;;5.39;55.43;99085.91;6726608;29;20233;-78
2024/01/19 09:12:04;;;;;;;23.70;15.70;;;;;;;5.13;56.86;99096.72;6718389;29;20214;-79
2024/01/19 09:15:25;;;;;;;22.17;14.97;;;;;;;5.35;55.64;99101.47;6720079;29;20669;-81
2024/01/19 09:18:47;;;;;;;28.80;18.63;;;;;;;5.27;56.27;99109.47;6719118;29;20267;-81
2024/01/19 09:22:08;;;;;;;25.93;16.93;;;;;;;5.26;55.62;99131.00;6719868;29;20217;-79
2024/01/19 09:25:31;;;;;;;22.40;15.33;;;;;;;5.41;55.97;99130.22;6721844;29;20288;-80
2024/01/19 09:28:53;;;;;;;19.27;14.67;;;;;;;5.12;55.78;99129.81;6730649;29;20264;-81
2024/01/19 09:32:16;;;;;;;25.93;16.03;;;;;;;5.31;56.33;99137.53;6725111;29;20236;-79
2024/01/19 09:35:38;;;;;;;27.60;16.50;;;;;;;5.19;55.72;99143.38;6735733;29;20215;-79
2024/01/19 09:38:59;;;;;;;23.27;14.13;;;;;;;4.96;55.82;99153.78;6720158;29;20252;-79
2024/01/19 09:42:25;;;;;;;24.23;15.33;;;;;;;5.12;56.07;99163.72;6732330;29;20250;-79
2024/01/19 09:45:49;;;;;;;21.27;14.70;;;;;;;5.05;55.47;99142.16;6719014;29;20242;-79
2024/01/19 09:49:13;;;;;;;24.53;15.17;;;;;;;5.20;55.15;99159.22;6732324;29;20229;-79
2024/01/19 09:52:42;;;;;;;21.00;15.20;;;;;;;5.23;55.34;99180.28;6730975;29;20217;-79
2024/01/19 09:56:07;;;;;;;18.83;13.73;;;;;;;5.13;54.58;99176.09;6731653;29;20209;-79
2024/01/19 09:59:32;;;;;;;23.97;16.47;;;;;;;4.98;56.34;99189.22;6726712;29;20695;-80
2024/01/19 10:02:54;;;;;;;26.73;16.50;;;;;;;5.38;55.72;99201.88;6732288;29;20216;-79
2024/01/19 10:06:20;;;;;;;24.83;16.53;;;;;;;5.57;55.35;99206.94;6733408;29;20329;-79
2024/01/19 10:09:41;;;;;;;21.53;14.67;;;;;;;5.24;54.94;99202.53;6732101;29;20240;-78
2024/01/19 10:13:05;;;;;;;22.90;14.23;;;;;;;4.84;55.99;99210.38;6736512;29;20212;-79
2024/01/19 10:16:28;;;;;;;22.83;15.00;;;;;;;4.88;55.75;99204.53;6726295;29;20267;-79
2024/01/19 10:19:50;;;;;;;22.83;15.27;;;;;;;5.03;55.74;99218.97;6735428;29;20311;-80
2024/01/19 10:23:19;;;;;;;26.17;15.43;;;;;;;5.24;55.03;99208.69;6723174;29;20685;-80
2024/01/19 10:26:42;;;;;;;31.57;18.33;;;;;;;5.54;55.96;99221.47;6727797;29;20687;-79
2024/01/19 10:30:11;;;;;;;32.37;17.87;;;;;;;6.00;55.92;99218.25;6739858;29;20613;-80
2024/01/19 10:33:34;;;;;;;30.40;17.77;;;;;;;6.14;55.33;99222.09;6727328;29;20238;-79
2024/01/19 10:36:55;;;;;;;40.73;20.03;;;;;;;6.05;54.74;99196.31;6737672;29;20625;-83
2024/01/19 10:40:22;;;;;;;93.90;33.50;;;;;;;6.44;55.93;99241.03;6737092;29;20254;-79
2024/01/19 10:43:43;;;;;;;25.27;17.00;;;;;;;6.40;54.60;99238.81;6740192;29;20212;-79
2024/01/19 10:47:05;;;;;;;32.63;17.67;;;;;;;6.67;54.15;99227.75;6736318;29;20313;-82
2024/01/19 10:50:28;;;;;;;22.10;14.40;;;;;;;7.08;52.67;99229.31;6733651;29;20241;-83
2024/01/19 10:53:50;;;;;;;26.40;16.17;;;;;;;7.09;51.56;99226.47;6732287;29;20216;-81
2024/01/19 10:57:15;;;;;;;25.50;16.90;;;;;;;7.35;49.92;99228.88;6730563;29;20310;-81
2024/01/19 11:00:38;;;;;;;26.03;16.13;;;;;;;7.98;49.32;99233.06;6730921;29;20221;-81
2024/01/19 11:03:59;;;;;;;19.97;14.87;;;;;;;7.61;49.16;99232.09;6731001;29;20609;-80
2024/01/19 11:07:22;;;;;;;23.43;15.57;;;;;;;7.68;49.48;99225.00;6722158;29;20684;-80
2024/01/19 11:10:48;;;;;;;24.40;15.47;;;;;;;7.78;48.93;99229.13;6729927;29;20238;-80
2024/01/19 11:14:10;;;;;;;21.27;14.70;;;;;;;7.77;49.92;99223.97;6730542;29;20215;-80
2024/01/19 11:17:31;;;;;;;20.50;13.93;;;;;;;7.94;49.08;99233.56;6731429;29;20263;-83
2024/01/19 11:20:53;;;;;;;23.37;16.80;;;;;;;7.08;51.05;99230.13;6732765;29;20237;-81
2024/01/19 11:24:18;;;;;;;27.93;15.97;;;;;;;7.54;50.97;99236.50;6732546;29;20264;-80
2024/01/19 11:27:44;;;;;;;20.53;14.27;;;;;;;8.04;48.74;99235.03;6731987;29;20330;-85
2024/01/19 11:31:13;;;;;;;28.63;16.97;;;;;;;7.22;53.94;99216.03;6733674;29;20345;-85
2024/01/19 11:34:45;;;;;;;18.67;14.07;;;;;;;8.00;48.70;99228.34;6742564;29;20216;-80
2024/01/19 11:38:07;;;;;;;21.90;13.93;;;;;;;8.36;47.14;99218.66;6733784;29;20588;-80
2024/01/19 11:41:48;;;;;;;20.13;13.67;;;;;;;8.55;46.14;99226.22;6734081;29;20249;-80
2024/01/19 11:45:37;;;;;;;15.77;12.90;;;;;;;8.78;45.69;99226.19;6715905;29;20217;-84
2024/01/19 11:48:59;;;;;;;19.10;13.37;;;;;;;8.98;45.74;99234.34;6730618;29;20608;-81
2024/01/19 11:52:44;;;;;;;23.97;15.93;;;;;;;9.11;44.91;99229.16;6732389;29;20313;-84
2024/01/19 11:56:21;;;;;;;30.33;15.93;;;;;;;9.06;45.36;99214.59;6731836;29;20350;-83
2024/01/19 11:59:44;;;;;;;21.83;14.90;;;;;;;9.07;44.99;99221.66;6723327;29;20704;-80
2024/01/19 12:03:06;;;;;;;21.97;14.77;;;;;;;8.73;45.33;99234.78;6730082;29;20211;-84
2024/01/19 12:06:28;;;;;;;20.63;13.93;;;;;;;8.44;46.00;99239.28;6730014;29;21006;-81
2024/01/19 12:10:07;;;;;;;22.93;14.40;;;;;;;7.84;47.13;99241.03;6730918;29;20256;-82
2024/01/19 12:13:29;;;;;;;19.37;13.50;;;;;;;8.58;45.45;99233.94;6730982;29;20197;-80
2024/01/19 12:16:52;;;;;;;17.77;12.93;;;;;;;8.80;45.97;99233.06;6728788;29;20209;-81
2024/01/19 12:20:16;;;;;;;20.17;13.43;;;;;;;9.20;43.69;99227.22;6736333;29;20310;-81
2024/01/19 12:23:39;;;;;;;17.20;12.87;;;;;;;9.27;43.92;99228.97;6728261;29;20217;-81
2024/01/19 12:27:00;;;;;;;18.13;12.87;;;;;;;9.18;44.21;99226.56;6728951;29;20237;-82
2024/01/19 12:30:22;;;;;;;18.40;13.90;;;;;;;8.88;44.92;99207.91;6724815;29;20331;-80
2024/01/19 12:33:45;;;;;;;17.43;13.80;;;;;;;9.15;44.50;99225.09;6735908;29;20250;-81
2024/01/19 12:37:08;;;;;;;25.97;21.93;;;;;;;8.36;47.16;99250.91;6726492;29;20370;-80
2024/01/19 12:40:30;;;;;;;25.80;17.83;;;;;;;8.51;46.61;99242.91;6725235;29;20223;-80
2024/01/19 12:43:51;;;;;;;17.23;14.03;;;;;;;9.09;43.24;99238.47;6732491;29;20218;-82
2024/01/19 12:47:15;;;;;;;17.30;13.77;;;;;;;8.76;44.76;99255.09;6736845;29;20235;-80
2024/01/19 12:50:38;;;;;;;15.60;12.40;;;;;;;7.41;46.53;99257.66;6726504;29;20212;-80
2024/01/19 12:53:59;;;;;;;19.20;13.37;;;;;;;7.93;46.83;99242.63;6730630;29;20240;-79
2024/01/19 12:57:22;;;;;;;21.50;13.27;;;;;;;7.75;46.71;99245.63;6731034;29;20281;-80
2024/01/19 13:00:43;;;;;;;20.13;13.07;;;;;;;7.48;47.29;99231.84;6732082;29;20221;-80
2024/01/19 13:04:05;;;;;;;15.13;13.13;;;;;;;7.53;47.25;99232.13;6732354;29;20259;-80
2024/01/19 13:07:28;;;;;;;17.03;13.30;;;;;;;7.74;46.81;99256.50;6731213;29;20226;-81
2024/01/19 13:10:49;;;;;;;15.67;11.70;;;;;;;7.18;47.64;99246.88;6727886;29;20272;-79
2024/01/19 13:14:13;;;;;;;21.83;13.83;;;;;;;7.60;47.79;99259.97;6722493;29;20333;-83
2024/01/19 13:17:38;;;;;;;16.23;11.37;;;;;;;7.30;47.55;99253.53;6733170;29;20234;-81
2024/01/19 13:21:11;;;;;;;17.40;12.27;;;;;;;8.01;46.53;99247.97;6734382;29;20227;-80
2024/01/19 13:24:34;;;;;;;20.80;14.97;;;;;;;8.47;45.27;99255.88;6717351;29;20230;-80
2024/01/19 13:27:55;;;;;;;20.50;13.80;;;;;;;7.07;48.68;99266.00;6726419;29;20265;-80
2024/01/19 13:31:17;;;;;;;18.63;13.70;;;;;;;6.63;49.26;99267.44;6721789;29;20259;-81
2024/01/19 13:34:39;;;;;;;15.73;12.67;;;;;;;6.68;50.71;99261.56;6736142;29;20299;-81
2024/01/19 13:38:00;;;;;;;15.83;11.00;;;;;;;6.66;48.88;99269.78;6744692;29;20302;-80
2024/01/19 13:41:24;;;;;;;22.53;12.83;;;;;;;6.47;50.41;99286.19;6737334;29;20299;-82
2024/01/19 13:44:45;;;;;;;14.03;10.40;;;;;;;6.27;49.97;99276.84;6738494;29;20906;-80
2024/01/19 13:48:09;;;;;;;16.90;11.37;;;;;;;6.11;50.33;99287.50;6738540;29;20249;-80
2024/01/19 13:51:31;;;;;;;16.00;12.77;;;;;;;7.12;49.12;99287.78;6738501;29;20274;-80
2024/01/19 13:54:53;;;;;;;17.70;13.43;;;;;;;6.77;49.26;99298.91;6738343;29;20230;-80
2024/01/19 13:58:16;;;;;;;18.47;13.33;;;;;;;6.29;51.64;99298.06;6734024;29;20237;-80
2024/01/19 14:01:37;;;;;;;17.70;12.03;;;;;;;6.49;50.54;99286.03;6737528;29;20245;-80
2024/01/19 14:04:59;;;;;;;16.60;13.10;;;;;;;6.35;50.53;99287.53;6742098;29;20380;-79
2024/01/19 14:08:23;;;;;;;20.40;14.27;;;;;;;6.44;51.26;99294.59;6739745;29;20275;-79
2024/01/19 14:11:47;;;;;;;20.70;15.27;;;;;;;6.63;50.74;99296.91;6738748;29;20713;-80
2024/01/19 14:15:10;;;;;;;17.53;13.33;;;;;;;6.17;51.03;99304.75;6736190;29;20695;-78
2024/01/19 14:18:32;;;;;;;22.20;14.50;;;;;;;6.69;50.66;99290.88;6723838;29;20380;-79
2024/01/19 14:21:53;;;;;;;25.17;16.60;;;;;;;7.00;50.44;99312.44;6736726;29;20226;-80
2024/01/19 14:25:15;;;;;;;25.33;18.30;;;;;;;6.82;49.95;99318.00;6737081;29;20743;-80
2024/01/19 14:28:37;;;;;;;18.90;13.53;;;;;;;6.96;49.36;99321.84;6735033;29;20621;-79
2024/01/19 14:32:00;;;;;;;15.53;11.90;;;;;;;6.06;50.15;99343.38;6734290;29;20323;-78
2024/01/19 14:35:25;;;;;;;14.87;11.13;;;;;;;6.09;50.64;99345.75;6731120;29;20228;-79
2024/01/19 14:38:46;;;;;;;21.13;12.80;;;;;;;6.23;50.36;99337.06;6719671;29;20262;-80
2024/01/19 14:42:08;;;;;;;14.97;11.23;;;;;;;6.00;50.34;99353.88;6720381;29;20760;-79
2024/01/19 14:45:30;;;;;;;15.20;11.77;;;;;;;5.90;50.57;99355.88;6729350;29;20324;-79
2024/01/19 14:48:53;;;;;;;16.93;11.80;;;;;;;6.22;49.95;99347.94;6735765;29;20224;-80
2024/01/19 14:52:14;;;;;;;22.10;12.97;;;;;;;6.14;50.21;99339.88;6737649;29;20216;-79
2024/01/19 14:55:36;;;;;;;21.87;13.37;;;;;;;6.44;50.31;99345.47;6732033;29;20293;-79
2024/01/19 14:58:58;;;;;;;16.90;12.60;;;;;;;6.40;49.73;99362.88;6735675;29;20280;-79
2024/01/19 15:02:20;;;;;;;18.73;13.03;;;;;;;6.35;50.50;99367.03;6727477;29;20263;-79
2024/01/19 15:05:42;;;;;;;20.80;14.27;;;;;;;6.26;51.06;99376.88;6736189;29;20749;-79
2024/01/19 15:09:04;;;;;;;20.13;14.77;;;;;;;6.20;50.72;99374.03;6736870;29;20241;-78
2024/01/19 15:12:25;;;;;;;19.70;14.77;;;;;;;6.13;51.30;99378.38;6743143;29;20860;-79
2024/01/19 15:15:47;;;;;;;19.87;15.20;;;;;;;5.98;50.37;99375.50;6740181;29;20258;-79
2024/01/19 15:19:09;;;;;;;23.50;14.33;;;;;;;5.57;51.69;99362.06;6743226;29;20227;-80
2024/01/19 15:22:34;;;;;;;22.30;15.20;;;;;;;5.55;52.26;99383.59;6743124;29;20220;-78
2024/01/19 15:25:58;;;;;;;22.43;15.10;;;;;;;5.52;51.91;99383.94;6734637;29;20236;-80
2024/01/19 15:29:20;;;;;;;21.30;14.27;;;;;;;5.61;51.84;99396.34;6734568;29;20323;-80
2024/01/19 15:32:41;;;;;;;20.07;14.20;;;;;;;5.45;51.66;99396.28;6735534;29;20240;-81
2024/01/19 15:36:08;;;;;;;20.80;13.97;;;;;;;5.58;52.04;99394.00;6732139;29;20209;-81
2024/01/19 15:39:31;;;;;;;20.33;15.43;;;;;;;5.07;52.95;99412.72;6731601;29;20228;-81
2024/01/19 15:42:52;;;;;;;24.57;14.93;;;;;;;4.93;52.72;99412.44;6733173;29;20251;-81